Time;durP1;ratioP1;P1;durP2;ratioP2;P2;SDS_P1;SDS_P2;PMS_P1;PMS_P2;Temp;Humidity;BMP_temperature;BMP_pressure;BME280_temperature;BME280_humidity;BME280_pressure;Samples;Min_cycle;Max_cycle;Signal;HPM_P1;HPM_P2
2023/04/06 00:01:35;;;;;;;1999.90;999.90;;;1.50;99.90;;;;;;5064687;28;20070;-68
2023/04/06 00:04:01;;;;;;;1999.90;999.90;;;1.40;99.90;;;;;;5067175;28;20041;-69
2023/04/06 00:06:26;;;;;;;1999.90;999.90;;;1.40;99.90;;;;;;5064229;28;20055;-69
2023/04/06 00:08:52;;;;;;;1999.90;999.90;;;1.40;99.90;;;;;;5048178;28;20036;-69
2023/04/06 00:11:18;;;;;;;1999.90;999.90;;;1.40;99.90;;;;;;5066266;28;20080;-69
2023/04/06 00:13:44;;;;;;;1999.90;999.90;;;1.40;99.90;;;;;;5062207;28;20480;-68
2023/04/06 00:16:10;;;;;;;1999.90;999.90;;;1.40;99.90;;;;;;5062298;28;20032;-69
2023/04/06 00:18:36;;;;;;;1999.90;999.90;;;1.50;99.90;;;;;;5065821;28;20138;-69
2023/04/06 00:21:02;;;;;;;1999.90;999.90;;;1.50;99.90;;;;;;5064530;28;20488;-69
2023/04/06 00:23:28;;;;;;;1999.90;999.90;;;1.50;99.90;;;;;;5062569;28;20037;-69
2023/04/06 00:25:53;;;;;;;1999.90;999.90;;;1.50;99.90;;;;;;5064079;28;20496;-69
2023/04/06 00:28:25;;;;;;;1999.90;999.90;;;1.50;99.90;;;;;;5064083;28;20041;-69
2023/04/06 00:30:52;;;;;;;1999.90;999.90;;;1.50;99.90;;;;;;5062895;28;20047;-69
2023/04/06 00:33:18;;;;;;;1999.90;999.90;;;1.40;99.90;;;;;;5063847;28;20094;-69
2023/04/06 00:35:44;;;;;;;1999.90;999.90;;;1.40;99.90;;;;;;5060832;28;20475;-69
2023/04/06 00:38:09;;;;;;;1999.90;999.90;;;1.40;99.90;;;;;;5044072;28;20028;-69
2023/04/06 00:40:35;;;;;;;1999.90;999.90;;;1.40;99.90;;;;;;5063798;28;20067;-68
2023/04/06 00:43:01;;;;;;;1999.90;999.90;;;1.30;99.90;;;;;;5074934;28;20052;-68
2023/04/06 00:45:27;;;;;;;1999.90;999.90;;;1.30;99.90;;;;;;5061562;28;20590;-68
2023/04/06 00:47:53;;;;;;;1999.90;999.90;;;1.30;99.90;;;;;;5061775;28;20044;-68
2023/04/06 00:50:18;;;;;;;1999.90;999.90;;;1.20;99.90;;;;;;5063848;28;20102;-68
2023/04/06 00:52:44;;;;;;;1999.90;999.90;;;1.20;99.90;;;;;;5063573;28;20506;-68
2023/04/06 00:55:10;;;;;;;1999.90;999.90;;;1.20;99.90;;;;;;5062908;28;20044;-68
2023/04/06 00:57:36;;;;;;;1999.90;999.90;;;1.20;99.90;;;;;;5062112;28;20106;-69
2023/04/06 01:00:02;;;;;;;1999.90;999.90;;;1.20;99.90;;;;;;5063993;28;20039;-68
2023/04/06 01:02:27;;;;;;;1999.90;999.90;;;1.20;99.90;;;;;;5055075;28;20147;-68
2023/04/06 01:04:54;;;;;;;1999.90;999.90;;;1.20;99.90;;;;;;5063500;28;20477;-68
2023/04/06 01:07:20;;;;;;;1999.90;999.90;;;1.20;99.90;;;;;;5060597;28;20053;-68
2023/04/06 01:09:45;;;;;;;1999.90;999.90;;;1.20;99.90;;;;;;5063689;28;20032;-68
2023/04/06 01:12:11;;;;;;;1999.90;999.90;;;1.20;99.90;;;;;;5062647;28;20131;-68
2023/04/06 01:14:36;;;;;;;1999.90;999.90;;;1.30;99.90;;;;;;5043856;28;20154;-69
2023/04/06 01:17:02;;;;;;;1999.90;999.90;;;1.30;99.90;;;;;;5045870;28;20044;-69
2023/04/06 01:19:28;;;;;;;1999.90;999.90;;;1.30;99.90;;;;;;5065363;28;20037;-69
2023/04/06 01:21:54;;;;;;;1999.90;999.90;;;1.30;99.90;;;;;;5060949;28;20094;-69
2023/04/06 01:24:20;;;;;;;1999.90;999.90;;;1.20;99.90;;;;;;5044652;28;20120;-69
2023/04/06 01:26:46;;;;;;;1999.90;999.90;;;1.20;99.90;;;;;;5061625;28;20125;-69
2023/04/06 01:29:12;;;;;;;1999.90;999.90;;;1.20;99.90;;;;;;5046866;28;20028;-69
2023/04/06 01:31:38;;;;;;;1999.90;999.90;;;1.20;99.90;;;;;;5060852;28;20137;-69
2023/04/06 01:34:04;;;;;;;1999.90;999.90;;;1.20;99.90;;;;;;5060557;28;20059;-69
2023/04/06 01:36:30;;;;;;;1999.90;999.90;;;1.20;99.90;;;;;;5061420;28;20040;-69
2023/04/06 01:38:56;;;;;;;1999.90;999.90;;;1.20;99.90;;;;;;5046973;28;20392;-69
2023/04/06 01:41:21;;;;;;;1999.90;999.90;;;1.20;99.90;;;;;;5061973;28;20041;-70
2023/04/06 01:43:48;;;;;;;1999.90;999.90;;;1.10;99.90;;;;;;5046137;28;20075;-69
2023/04/06 01:46:14;;;;;;;1999.90;999.90;;;1.10;99.90;;;;;;5060741;28;20033;-70
2023/04/06 01:48:39;;;;;;;1999.90;999.90;;;1.00;99.90;;;;;;5061237;28;20500;-69
2023/04/06 01:51:05;;;;;;;1999.90;999.90;;;1.00;99.90;;;;;;5055109;28;20044;-70
2023/04/06 01:53:31;;;;;;;1999.90;999.90;;;1.00;99.90;;;;;;5073396;28;20506;-69
2023/04/06 01:55:56;;;;;;;1999.90;999.90;;;0.90;99.90;;;;;;5043188;28;20041;-69
2023/04/06 01:58:22;;;;;;;1999.90;999.90;;;0.90;99.90;;;;;;5060047;28;20032;-70
2023/04/06 02:00:47;;;;;;;1999.90;999.90;;;0.90;99.90;;;;;;5045707;28;20056;-70
2023/04/06 02:03:14;;;;;;;1999.90;999.90;;;0.90;99.90;;;;;;5046117;28;20071;-69
2023/04/06 02:05:40;;;;;;;1999.90;999.90;;;0.90;99.90;;;;;;5057602;28;20048;-69
2023/04/06 02:08:06;;;;;;;1999.90;999.90;;;0.90;99.90;;;;;;5060004;28;20047;-69
2023/04/06 02:10:33;;;;;;;1999.90;999.90;;;0.90;99.90;;;;;;5065489;28;20043;-69
2023/04/06 02:12:58;;;;;;;1999.90;999.90;;;0.90;99.90;;;;;;5062507;28;20051;-69
2023/04/06 02:15:24;;;;;;;1999.90;999.90;;;0.90;99.90;;;;;;5054406;28;20489;-69
2023/04/06 02:17:51;;;;;;;1999.90;999.90;;;0.90;99.90;;;;;;5057701;28;20041;-69
2023/04/06 02:20:17;;;;;;;1999.90;999.90;;;0.90;99.90;;;;;;5065292;28;20032;-69
2023/04/06 02:22:42;;;;;;;1999.90;999.90;;;0.90;99.90;;;;;;5062779;28;20460;-69
2023/04/06 02:25:08;;;;;;;1999.90;999.90;;;0.90;99.90;;;;;;5043978;28;20084;-68
2023/04/06 02:27:34;;;;;;;1999.90;999.90;;;0.80;99.90;;;;;;5044587;28;20416;-69
2023/04/06 02:30:00;;;;;;;1999.90;999.90;;;0.80;99.90;;;;;;5060741;28;20500;-69
2023/04/06 02:32:25;;;;;;;1999.90;999.90;;;0.80;99.90;;;;;;5041623;28;20076;-69
2023/04/06 02:34:51;;;;;;;1999.90;999.90;;;0.70;99.90;;;;;;5045911;28;20082;-68
2023/04/06 02:37:17;;;;;;;1999.90;999.90;;;0.70;99.90;;;;;;5062082;28;20048;-69
2023/04/06 02:39:42;;;;;;;1999.90;999.90;;;0.60;99.90;;;;;;5060604;28;20036;-69
2023/04/06 02:42:08;;;;;;;1999.90;999.90;;;0.60;99.90;;;;;;5044862;28;20040;-69
2023/04/06 02:44:34;;;;;;;1999.90;999.90;;;0.60;99.90;;;;;;5063576;28;20082;-69
2023/04/06 02:47:00;;;;;;;1999.90;999.90;;;0.50;99.90;;;;;;5059703;28;20134;-69
2023/04/06 02:49:25;;;;;;;1999.90;999.90;;;0.60;99.90;;;;;;5062126;28;20071;-69
2023/04/06 02:51:51;;;;;;;1999.90;999.90;;;0.50;99.90;;;;;;5062975;28;20059;-69
2023/04/06 02:54:17;;;;;;;1999.90;999.90;;;0.50;99.90;;;;;;5050108;28;20047;-69
2023/04/06 02:56:43;;;;;;;1999.90;999.90;;;0.50;99.90;;;;;;5066188;28;20489;-69
2023/04/06 02:59:09;;;;;;;1999.90;999.90;;;0.50;99.90;;;;;;5068696;28;20072;-69
2023/04/06 03:01:35;;;;;;;1999.90;999.90;;;0.50;99.90;;;;;;5065944;28;20599;-69
2023/04/06 03:04:01;;;;;;;1999.90;999.90;;;0.40;99.90;;;;;;5064399;28;20473;-69
2023/04/06 03:06:27;;;;;;;1999.90;999.90;;;0.40;99.90;;;;;;5066087;28;20083;-69
2023/04/06 03:08:52;;;;;;;1999.90;999.90;;;0.50;99.90;;;;;;5065052;28;20183;-69
2023/04/06 03:11:18;;;;;;;1999.90;999.90;;;0.40;99.90;;;;;;5066216;28;20040;-69
2023/04/06 03:13:44;;;;;;;1999.90;999.90;;;0.40;99.90;;;;;;5047135;28;20060;-69
2023/04/06 03:16:09;;;;;;;1999.90;999.90;;;0.50;99.90;;;;;;5064581;28;20041;-69
2023/04/06 03:18:35;;;;;;;1999.90;999.90;;;0.40;99.90;;;;;;5063761;28;20060;-69
2023/04/06 03:21:01;;;;;;;1999.90;999.90;;;0.40;99.90;;;;;;5046458;28;20630;-68
2023/04/06 03:23:26;;;;;;;1999.90;999.90;;;0.40;99.90;;;;;;5051693;28;20072;-69
2023/04/06 03:25:52;;;;;;;1999.90;999.90;;;0.40;99.90;;;;;;5061373;28;20076;-69
2023/04/06 03:28:18;;;;;;;1999.90;999.90;;;0.40;99.90;;;;;;5059698;28;21338;-69
2023/04/06 03:30:45;;;;;;;1999.90;999.90;;;0.30;99.90;;;;;;5062911;28;20526;-69
2023/04/06 03:33:11;;;;;;;1999.90;999.90;;;0.30;99.90;;;;;;5066854;28;20406;-68
2023/04/06 03:35:36;;;;;;;1999.90;999.90;;;0.30;99.90;;;;;;5048290;28;20033;-68
2023/04/06 03:38:05;;;;;;;1999.90;999.90;;;0.20;99.90;;;;;;5065486;28;20082;-69
2023/04/06 03:40:31;;;;;;;1999.90;999.90;;;0.30;99.90;;;;;;5061850;28;20045;-70
2023/04/06 03:42:57;;;;;;;1999.90;999.90;;;0.30;99.90;;;;;;5062836;28;20032;-70
2023/04/06 03:45:23;;;;;;;1999.90;999.90;;;0.20;99.90;;;;;;5063563;28;20503;-69
2023/04/06 03:47:48;;;;;;;1999.90;999.90;;;0.20;99.90;;;;;;5047808;28;20041;-70
2023/04/06 03:50:14;;;;;;;1999.90;999.90;;;0.10;99.90;;;;;;5047924;28;20097;-69
2023/04/06 03:52:40;;;;;;;1999.90;999.90;;;0.10;99.90;;;;;;5065052;28;20131;-70
2023/04/06 03:55:06;;;;;;;1999.90;999.90;;;0.10;99.90;;;;;;5061229;28;20025;-69
2023/04/06 03:57:32;;;;;;;1999.90;999.90;;;0.10;99.90;;;;;;5063741;28;20033;-69
2023/04/06 03:59:58;;;;;;;1999.90;999.90;;;0.00;99.90;;;;;;5045000;28;20083;-69
2023/04/06 04:02:23;;;;;;;1999.90;999.90;;;0.10;99.90;;;;;;5063939;28;20504;-69
2023/04/06 04:04:49;;;;;;;1999.90;999.90;;;0.00;99.90;;;;;;5061173;28;20044;-69
2023/04/06 04:07:15;;;;;;;1999.90;999.90;;;0.00;99.90;;;;;;5063876;28;20478;-69
2023/04/06 04:09:40;;;;;;;1999.90;999.90;;;-0.10;99.90;;;;;;5062349;28;20048;-69
2023/04/06 04:12:06;;;;;;;1999.90;999.90;;;0.00;99.90;;;;;;5062907;28;20049;-69
2023/04/06 04:14:32;;;;;;;1999.90;999.90;;;-0.10;99.90;;;;;;5061817;28;20047;-69
2023/04/06 04:16:57;;;;;;;1999.90;999.90;;;-0.10;99.90;;;;;;5062914;28;20033;-69
2023/04/06 04:19:23;;;;;;;1999.90;999.90;;;-0.10;99.90;;;;;;5062946;28;20040;-69
2023/04/06 04:21:49;;;;;;;1999.90;999.90;;;-0.10;99.90;;;;;;5059626;28;20040;-69
2023/04/06 04:24:14;;;;;;;1999.90;999.90;;;-0.10;99.90;;;;;;5060637;28;20077;-69
2023/04/06 04:26:40;;;;;;;1999.90;999.90;;;-0.10;99.90;;;;;;5062369;28;20109;-69
2023/04/06 04:29:06;;;;;;;1999.90;999.90;;;-0.10;99.90;;;;;;5048829;28;20093;-69
2023/04/06 04:31:32;;;;;;;1999.90;999.90;;;-0.10;99.90;;;;;;5062531;28;20044;-69
2023/04/06 04:33:59;;;;;;;1999.90;999.90;;;-0.10;99.90;;;;;;5065324;28;20032;-69
2023/04/06 04:36:25;;;;;;;1999.90;999.90;;;-0.10;99.90;;;;;;5062327;28;20033;-69
2023/04/06 04:38:51;;;;;;;1999.90;999.90;;;-0.10;99.90;;;;;;5045613;28;20506;-69
2023/04/06 04:41:17;;;;;;;1999.90;999.90;;;-0.10;99.90;;;;;;5057722;28;20036;-69
2023/04/06 04:43:43;;;;;;;1999.90;999.90;;;-0.10;99.90;;;;;;5063512;28;20496;-69
2023/04/06 04:46:08;;;;;;;1999.90;999.90;;;-0.10;99.90;;;;;;5045828;28;20033;-69
2023/04/06 04:48:34;;;;;;;1999.90;999.90;;;-0.10;99.90;;;;;;5060256;28;20032;-69
2023/04/06 04:51:00;;;;;;;1999.90;999.90;;;-0.10;99.90;;;;;;5045082;28;20033;-69
2023/04/06 04:53:25;;;;;;;1999.90;999.90;;;-0.10;99.90;;;;;;5043216;28;20416;-69
2023/04/06 04:55:51;;;;;;;1999.90;999.90;;;-0.10;99.90;;;;;;5060993;28;20071;-69
2023/04/06 04:58:18;;;;;;;1999.90;999.90;;;-0.10;99.90;;;;;;5063232;28;20484;-69
2023/04/06 05:00:44;;;;;;;1999.90;999.90;;;-0.10;99.90;;;;;;5044265;28;20040;-69
2023/04/06 05:03:20;;;;;;;1999.90;999.90;;;-0.10;99.90;;;;;;5063988;28;20071;-69
2023/04/06 05:05:45;;;;;;;1999.90;999.90;;;-0.10;99.90;;;;;;5057052;28;20044;-69
2023/04/06 05:08:12;;;;;;;1999.90;999.90;;;-0.10;99.90;;;;;;5062779;28;20044;-69
2023/04/06 05:10:37;;;;;;;1999.90;999.90;;;-0.10;99.90;;;;;;5066316;28;20944;-70
2023/04/06 05:13:03;;;;;;;1999.90;999.90;;;-0.10;99.90;;;;;;5063635;28;20045;-69
2023/04/06 05:15:29;;;;;;;1999.90;999.90;;;-0.10;99.90;;;;;;5057435;28;20051;-69
2023/04/06 05:17:54;;;;;;;1999.90;999.90;;;0.00;99.90;;;;;;5062275;28;20500;-69
2023/04/06 05:20:20;;;;;;;1999.90;999.90;;;0.00;99.90;;;;;;5059696;28;20518;-69
2023/04/06 05:22:46;;;;;;;1999.90;999.90;;;0.00;99.90;;;;;;5041419;28;20118;-69
2023/04/06 05:25:11;;;;;;;1999.90;999.90;;;0.00;99.90;;;;;;5059703;28;20087;-69
2023/04/06 05:27:37;;;;;;;1999.90;999.90;;;0.10;99.90;;;;;;5040618;28;20102;-69
2023/04/06 05:30:03;;;;;;;1999.90;999.90;;;0.10;99.90;;;;;;5063542;28;20040;-69
2023/04/06 05:32:29;;;;;;;1999.90;999.90;;;0.20;99.90;;;;;;5059195;28;20055;-69
2023/04/06 05:34:54;;;;;;;1999.90;999.90;;;0.20;99.90;;;;;;5063766;28;20552;-69
2023/04/06 05:37:20;;;;;;;1999.90;999.90;;;0.20;99.90;;;;;;5062972;28;20115;-69
2023/04/06 05:39:46;;;;;;;1999.90;999.90;;;0.30;99.90;;;;;;5046083;28;20079;-69
2023/04/06 05:42:11;;;;;;;1999.90;999.90;;;0.40;99.90;;;;;;5062584;28;20044;-70
2023/04/06 05:44:37;;;;;;;1999.90;999.90;;;0.40;99.90;;;;;;5048423;28;20036;-70
2023/04/06 05:47:03;;;;;;;1999.90;999.90;;;0.50;99.90;;;;;;5061535;28;20036;-70
2023/04/06 05:49:28;;;;;;;1999.90;999.90;;;0.60;99.90;;;;;;5062962;28;20504;-69
2023/04/06 05:51:55;;;;;;;1999.90;999.90;;;0.70;99.90;;;;;;5062188;28;20047;-69
2023/04/06 05:54:20;;;;;;;1999.90;999.90;;;0.70;99.90;;;;;;5063413;28;20416;-69
2023/04/06 05:56:46;;;;;;;1999.90;999.90;;;0.80;99.90;;;;;;5043884;28;20037;-70
2023/04/06 05:59:11;;;;;;;1999.90;999.90;;;0.90;99.90;;;;;;5059569;28;20081;-70
2023/04/06 06:01:37;;;;;;;1999.90;999.90;;;1.00;99.90;;;;;;5063276;28;20048;-70
2023/04/06 06:04:03;;;;;;;1999.90;999.90;;;1.10;99.90;;;;;;5060711;28;20032;-69
2023/04/06 06:06:32;;;;;;;1999.90;999.90;;;1.30;99.90;;;;;;5059848;28;20048;-70
2023/04/06 06:09:00;;;;;;;1999.90;999.90;;;1.50;99.90;;;;;;5061970;28;20440;-69
2023/04/06 06:11:27;;;;;;;1999.90;999.90;;;1.80;99.90;;;;;;5061879;28;20071;-69
2023/04/06 06:13:52;;;;;;;1999.90;999.90;;;2.10;99.90;;;;;;5045977;28;20120;-69
2023/04/06 06:16:19;;;;;;;1999.90;999.90;;;2.40;99.90;;;;;;5050453;28;20044;-70
2023/04/06 06:18:45;;;;;;;1999.90;999.90;;;2.60;99.90;;;;;;5043162;28;20059;-69
2023/04/06 06:21:14;;;;;;;1999.90;999.90;;;2.90;99.90;;;;;;5058543;28;20532;-69
2023/04/06 06:23:41;;;;;;;1999.90;999.90;;;2.90;99.90;;;;;;5057228;28;20044;-70
2023/04/06 06:26:07;;;;;;;1999.90;999.90;;;3.00;99.90;;;;;;5060847;28;20052;-69
2023/04/06 06:28:33;;;;;;;1999.90;999.90;;;3.10;99.90;;;;;;5062978;28;20036;-70
2023/04/06 06:30:58;;;;;;;1999.90;999.90;;;3.30;99.90;;;;;;5055098;28;20040;-70
2023/04/06 06:33:25;;;;;;;1999.90;999.90;;;3.40;99.90;;;;;;5056861;28;20053;-69
2023/04/06 06:35:51;;;;;;;1999.90;999.90;;;3.40;99.90;;;;;;5041814;28;20378;-69
2023/04/06 06:38:17;;;;;;;1999.90;999.90;;;3.40;99.90;;;;;;5055220;28;20048;-69
2023/04/06 06:40:43;;;;;;;1999.90;999.90;;;3.50;99.90;;;;;;5051907;28;20036;-70
2023/04/06 06:43:08;;;;;;;1999.90;999.90;;;3.50;99.90;;;;;;5039567;28;20572;-70
2023/04/06 06:45:34;;;;;;;1999.90;999.90;;;3.50;99.90;;;;;;5041417;28;20036;-69
2023/04/06 06:48:00;;;;;;;1999.90;999.90;;;3.50;99.90;;;;;;5056165;28;20155;-70
2023/04/06 06:50:27;;;;;;;1999.90;999.90;;;3.50;99.90;;;;;;5036249;28;20048;-69
2023/04/06 06:52:52;;;;;;;1999.90;999.90;;;3.50;99.90;;;;;;5046648;28;20051;-70
2023/04/06 06:55:19;;;;;;;1999.90;999.90;;;3.60;99.90;;;;;;5052471;28;20044;-70
2023/04/06 06:57:46;;;;;;;1999.90;999.90;;;3.70;99.90;;;;;;5055388;28;20434;-70
2023/04/06 07:00:13;;;;;;;1999.90;999.90;;;3.80;99.90;;;;;;5061621;28;20131;-70
2023/04/06 07:02:39;;;;;;;1999.90;999.90;;;3.90;99.90;;;;;;5055814;28;20049;-71
2023/04/06 07:05:05;;;;;;;1999.90;999.90;;;4.00;99.90;;;;;;5059848;28;20385;-70
2023/04/06 07:07:32;;;;;;;1999.90;999.90;;;4.40;99.90;;;;;;5045136;28;20566;-70
2023/04/06 07:09:58;;;;;;;1999.90;999.90;;;4.80;99.90;;;;;;5043850;28;20380;-69
2023/04/06 07:12:24;;;;;;;1999.90;999.90;;;5.00;99.90;;;;;;5051265;28;20033;-70
2023/04/06 07:14:50;;;;;;;1999.90;999.90;;;5.10;99.90;;;;;;5077447;28;20404;-69
2023/04/06 07:17:15;;;;;;;1999.90;999.90;;;5.20;99.90;;;;;;5062349;28;20111;-71
2023/04/06 07:19:41;;;;;;;1999.90;999.90;;;5.30;99.90;;;;;;5044751;28;20040;-69
2023/04/06 07:22:07;;;;;;;1999.90;999.90;;;5.30;99.90;;;;;;5053543;28;20079;-71
2023/04/06 07:24:32;;;;;;;1999.90;999.90;;;5.40;99.90;;;;;;5057667;28;20042;-70
2023/04/06 07:27:00;;;;;;;1999.90;999.90;;;5.50;99.90;;;;;;5061244;28;20056;-70
2023/04/06 07:29:26;;;;;;;1999.90;999.90;;;5.80;99.90;;;;;;5043108;28;20449;-71
2023/04/06 07:31:52;;;;;;;1999.90;999.90;;;6.00;99.90;;;;;;5053563;28;20139;-71
2023/04/06 07:34:18;;;;;;;1999.90;999.90;;;6.10;99.90;;;;;;5043104;28;20124;-70
2023/04/06 07:36:44;;;;;;;1999.90;999.90;;;6.20;99.90;;;;;;5060702;28;20762;-70
2023/04/06 07:39:10;;;;;;;1999.90;999.90;;;6.30;99.90;;;;;;5060347;28;20044;-71
2023/04/06 07:41:36;;;;;;;1999.90;999.90;;;6.30;99.90;;;;;;5061036;28;20131;-70
2023/04/06 07:44:02;;;;;;;1999.90;999.90;;;6.40;99.90;;;;;;5049187;28;20131;-70
2023/04/06 07:46:27;;;;;;;1999.90;999.90;;;6.50;99.90;;;;;;5059553;28;20441;-71
2023/04/06 07:48:53;;;;;;;1999.90;999.90;;;6.60;99.90;;;;;;5069059;28;20040;-70
2023/04/06 07:51:19;;;;;;;1999.90;999.90;;;6.70;99.90;;;;;;5064196;28;20047;-70
2023/04/06 07:53:45;;;;;;;1999.90;999.90;;;7.00;99.90;;;;;;5064413;28;20056;-70
2023/04/06 07:56:11;;;;;;;1999.90;999.90;;;7.30;99.90;;;;;;5061016;28;20485;-71
2023/04/06 07:58:37;;;;;;;1999.90;999.90;;;7.40;99.90;;;;;;5074332;28;20055;-70
2023/04/06 08:01:03;;;;;;;1999.90;999.90;;;7.40;99.90;;;;;;5049388;28;20044;-71
2023/04/06 08:03:29;;;;;;;1999.90;999.90;;;7.50;99.90;;;;;;5057299;28;20048;-70
2023/04/06 08:05:55;;;;;;;1999.90;999.90;;;7.60;99.90;;;;;;5055331;28;20517;-71
2023/04/06 08:08:21;;;;;;;1999.90;999.90;;;7.70;99.90;;;;;;5065795;28;20051;-71
2023/04/06 08:10:48;;;;;;;1999.90;999.90;;;7.90;99.90;;;;;;5057471;28;20102;-70
2023/04/06 08:13:14;;;;;;;1999.90;999.90;;;8.00;99.90;;;;;;5060667;28;20044;-70
2023/04/06 08:15:39;;;;;;;1999.90;999.90;;;8.10;99.90;;;;;;5060245;28;20622;-69
2023/04/06 08:18:05;;;;;;;1999.90;999.90;;;8.30;99.90;;;;;;5065661;28;20040;-71
2023/04/06 08:20:31;;;;;;;1999.90;999.90;;;8.40;99.90;;;;;;5042037;28;20089;-71
2023/04/06 08:22:56;;;;;;;1999.90;999.90;;;8.60;99.90;;;;;;5057845;28;20511;-70
2023/04/06 08:25:22;;;;;;;1999.90;999.90;;;8.70;99.90;;;;;;5059917;28;20064;-69
2023/04/06 08:27:48;;;;;;;1999.90;999.90;;;8.90;99.90;;;;;;5063030;28;20548;-70
2023/04/06 08:30:15;;;;;;;1999.90;999.90;;;9.20;99.80;;;;;;5066790;28;20504;-70
2023/04/06 08:32:41;;;;;;;1999.90;999.90;;;9.30;99.20;;;;;;5062438;28;20039;-70
2023/04/06 08:35:08;;;;;;;1999.90;999.90;;;9.30;98.50;;;;;;5056216;28;20029;-70
2023/04/06 08:37:33;;;;;;;1999.90;999.90;;;9.30;96.00;;;;;;5046472;28;20361;-69
2023/04/06 08:39:59;;;;;;;1999.90;999.90;;;9.30;94.70;;;;;;5062360;28;20055;-69
2023/04/06 08:42:27;;;;;;;1999.90;999.90;;;9.50;95.80;;;;;;5040728;28;20456;-70
2023/04/06 08:44:54;;;;;;;1999.90;999.90;;;9.70;96.30;;;;;;5059039;28;20223;-69
2023/04/06 08:47:20;;;;;;;1999.90;999.90;;;10.10;94.40;;;;;;5060848;28;20040;-69
2023/04/06 08:49:46;;;;;;;1999.90;999.90;;;10.40;94.70;;;;;;5059694;28;20488;-70
2023/04/06 08:52:12;;;;;;;1999.90;999.90;;;11.10;94.90;;;;;;5051701;28;20116;-69
2023/04/06 08:54:38;;;;;;;1999.90;999.90;;;11.60;92.80;;;;;;5059393;28;21521;-69
2023/04/06 08:57:05;;;;;;;1999.90;999.90;;;12.00;90.70;;;;;;5060776;28;20033;-70
2023/04/06 08:59:32;;;;;;;1999.90;999.90;;;12.10;90.70;;;;;;5062934;28;20104;-70
2023/04/06 09:01:58;;;;;;;1999.90;999.90;;;11.90;88.00;;;;;;5045443;28;20048;-70
2023/04/06 09:04:26;;;;;;;1999.90;999.90;;;11.70;87.90;;;;;;5037604;28;20916;-70
2023/04/06 09:06:53;;;;;;;1999.90;999.90;;;11.50;85.40;;;;;;5043060;28;20044;-69
2023/04/06 09:09:18;;;;;;;1999.90;999.90;;;11.50;86.00;;;;;;5052192;28;20052;-70
2023/04/06 09:11:49;;;;;;;1999.90;999.90;;;11.40;86.80;;;;;;5057735;28;20048;-70
2023/04/06 09:14:16;;;;;;;1999.90;999.90;;;11.30;83.40;;;;;;5061233;28;20067;-69
2023/04/06 09:16:44;;;;;;;1999.90;999.90;;;11.40;86.70;;;;;;5046407;28;20040;-70
2023/04/06 09:19:11;;;;;;;1999.90;999.90;;;11.60;87.90;;;;;;5058121;28;20064;-70
2023/04/06 09:21:37;;;;;;;1999.90;999.90;;;11.70;83.60;;;;;;5062451;28;20047;-70
2023/04/06 09:24:03;;;;;;;1999.90;999.90;;;11.70;80.90;;;;;;5057693;28;20036;-69
2023/04/06 09:26:29;;;;;;;1999.90;999.90;;;11.70;80.80;;;;;;5044965;28;20057;-69
2023/04/06 09:28:57;;;;;;;1999.90;999.90;;;11.60;83.40;;;;;;5043728;28;20110;-69
2023/04/06 09:31:24;;;;;;;1999.90;999.90;;;11.60;78.70;;;;;;5051553;28;20036;-69
2023/04/06 09:33:51;;;;;;;1999.90;999.90;;;11.60;82.50;;;;;;5063498;28;20543;-69
2023/04/06 09:36:17;;;;;;;1999.90;999.90;;;11.60;80.40;;;;;;5060825;28;20064;-69
2023/04/06 09:38:53;;;;;;;1999.90;999.90;;;11.50;81.30;;;;;;5064894;28;20117;-69
2023/04/06 09:41:30;;;;;;;1999.90;999.90;;;11.60;82.90;;;;;;5059682;28;20041;-70
2023/04/06 09:44:13;;;;;;;1999.90;999.90;;;11.70;82.20;;;;;;5062979;28;20112;-70
2023/04/06 09:46:43;;;;;;;1999.90;999.90;;;11.90;82.30;;;;;;5062588;28;20071;-70
2023/04/06 09:49:10;;;;;;;1999.90;999.90;;;12.00;81.90;;;;;;5058465;28;20090;-70
2023/04/06 09:51:40;;;;;;;1999.90;999.90;;;12.20;79.80;;;;;;5063642;28;20526;-70
2023/04/06 09:54:06;;;;;;;1999.90;999.90;;;12.30;80.60;;;;;;5047267;28;20480;-69
2023/04/06 09:57:11;;;;;;;1999.90;999.90;;;12.40;79.30;;;;;;5042747;28;20040;-70
2023/04/06 09:59:55;;;;;;;1999.90;999.90;;;12.50;79.30;;;;;;5061209;28;20082;-70
2023/04/06 10:02:51;;;;;;;1999.90;999.90;;;12.70;79.50;;;;;;5048092;28;20408;-70
2023/04/06 10:05:20;;;;;;;1999.90;999.90;;;12.60;76.00;;;;;;5054768;28;21331;-70
2023/04/06 10:07:50;;;;;;;1999.90;999.90;;;12.40;77.20;;;;;;5060561;28;20055;-70
2023/04/06 10:10:16;;;;;;;1999.90;999.90;;;12.40;77.30;;;;;;5046755;28;20045;-70
2023/04/06 10:12:44;;;;;;;1999.90;999.90;;;12.40;78.30;;;;;;5062560;28;20119;-70
2023/04/06 10:15:10;;;;;;;1999.90;999.90;;;12.40;79.50;;;;;;5061071;28;20322;-70
2023/04/06 10:17:36;;;;;;;1999.90;999.90;;;12.50;79.00;;;;;;5044209;28;20040;-69
2023/04/06 10:20:36;;;;;;;1999.90;999.90;;;12.50;79.90;;;;;;5059876;28;20094;-69
2023/04/06 10:23:31;;;;;;;1999.90;999.90;;;12.60;79.40;;;;;;5053268;28;20484;-70
2023/04/06 10:25:58;;;;;;;1999.90;999.90;;;12.70;78.60;;;;;;5061191;28;20060;-69
2023/04/06 10:28:25;;;;;;;1999.90;999.90;;;12.90;79.00;;;;;;5056459;28;20385;-69
2023/04/06 10:30:58;;;;;;;1999.90;999.90;;;13.00;77.90;;;;;;5043363;28;20063;-69
2023/04/06 10:33:23;;;;;;;1999.90;999.90;;;13.10;75.80;;;;;;5055664;28;20044;-69
2023/04/06 10:35:49;;;;;;;1999.90;999.90;;;13.00;75.10;;;;;;5060887;28;20118;-70
2023/04/06 10:38:19;;;;;;;1999.90;999.90;;;12.90;76.10;;;;;;5045285;28;20044;-69
2023/04/06 10:40:47;;;;;;;1999.90;999.90;;;12.90;76.40;;;;;;5041355;28;20043;-70
2023/04/06 10:43:22;;;;;;;1999.90;999.90;;;13.00;75.10;;;;;;5058854;28;20081;-70
2023/04/06 10:45:55;;;;;;;;;;;12.90;76.00;;;;;;5058811;28;20403;-70
2023/04/06 10:48:21;;;;;;;1999.90;999.90;;;12.90;77.50;;;;;;5061196;28;19916;-69
2023/04/06 10:50:51;;;;;;;1999.90;999.90;;;13.00;78.10;;;;;;5052568;28;20064;-70
2023/04/06 10:53:27;;;;;;;1999.90;999.90;;;13.10;75.00;;;;;;5061437;28;20401;-69
2023/04/06 10:55:56;;;;;;;1999.90;999.90;;;13.20;78.20;;;;;;5062965;28;20060;-69
2023/04/06 10:58:26;;;;;;;1999.90;999.90;;;13.20;75.80;;;;;;5062526;28;20120;-69
2023/04/06 11:00:54;;;;;;;1999.90;999.90;;;13.30;76.60;;;;;;5058047;28;20029;-69
2023/04/06 11:03:20;;;;;;;1999.90;999.90;;;13.50;80.30;;;;;;5058392;28;20159;-69
2023/04/06 11:05:50;;;;;;;1999.90;999.90;;;13.70;77.40;;;;;;5059685;28;20037;-70
2023/04/06 11:08:30;;;;;;;1999.90;999.90;;;13.90;75.50;;;;;;5077148;28;20039;-69
2023/04/06 11:11:09;;;;;;;1999.90;999.90;;;13.90;76.60;;;;;;5042949;28;20044;-69
2023/04/06 11:13:39;;;;;;;1999.90;999.90;;;14.00;74.50;;;;;;5060614;28;20048;-68
2023/04/06 11:16:04;;;;;;;1999.90;999.90;;;14.00;74.80;;;;;;5060858;28;20041;-68
2023/04/06 11:18:31;;;;;;;1999.90;999.90;;;14.00;73.10;;;;;;5062490;28;20508;-68
2023/04/06 11:20:57;;;;;;;1999.90;999.90;;;13.80;76.10;;;;;;5064548;28;20073;-68
2023/04/06 11:23:25;;;;;;;1999.90;999.90;;;13.80;75.80;;;;;;5059277;28;20484;-69
2023/04/06 11:25:54;;;;;;;1999.90;999.90;;;14.00;74.60;;;;;;5061307;28;20061;-68
2023/04/06 11:28:20;;;;;;;1999.90;999.90;;;14.00;73.10;;;;;;5059931;28;20075;-69
2023/04/06 11:30:46;;;;;;;1999.90;999.90;;;13.90;69.70;;;;;;5062808;28;20114;-69
2023/04/06 11:33:20;;;;;;;1999.90;999.90;;;13.70;69.60;;;;;;5063620;28;20040;-68
2023/04/06 11:35:46;;;;;;;1999.90;999.90;;;13.50;69.30;;;;;;5044340;28;20040;-68
2023/04/06 11:38:12;;;;;;;1999.90;999.90;;;13.30;71.00;;;;;;5062980;28;20040;-69
2023/04/06 11:40:37;;;;;;;1999.90;999.90;;;13.40;72.90;;;;;;5062857;28;20465;-69
2023/04/06 11:43:04;;;;;;;1999.90;999.90;;;13.50;73.80;;;;;;5058268;28;20043;-69
2023/04/06 11:45:41;;;;;;;1999.90;999.90;;;13.60;70.70;;;;;;5063990;28;20076;-69
2023/04/06 11:48:17;;;;;;;1999.90;999.90;;;13.50;71.90;;;;;;5060649;28;20370;-69
2023/04/06 11:50:42;;;;;;;1999.90;999.90;;;13.60;74.10;;;;;;5063966;28;20492;-69
2023/04/06 11:53:08;;;;;;;1999.90;999.90;;;13.70;73.50;;;;;;5065204;28;20095;-69
2023/04/06 11:55:40;;;;;;;1999.90;999.90;;;13.70;72.00;;;;;;5047356;28;20029;-69
2023/04/06 11:58:06;;;;;;;1999.90;999.90;;;13.70;71.00;;;;;;5057224;28;20048;-69
2023/04/06 12:00:34;;;;;;;1999.90;999.90;;;13.70;71.80;;;;;;5065845;28;20047;-69
2023/04/06 12:03:00;;;;;;;1999.90;999.90;;;13.60;70.10;;;;;;5064890;28;20455;-69
2023/04/06 12:05:26;;;;;;;1999.90;999.90;;;13.50;71.30;;;;;;5066800;28;20044;-68